La Mesa, California
Current Conditions -  °F | °C
As of 5:35 PM on Thursday 27 Nov 2014 (Local Time) from KSEE Reporting Station
Clear Clear  
Wind Chill: 72°   Ceiling: Unl
Heat Index: 72°   Visibility: 10mi
Dew Point: 32°   Wind: 0mph
Humidity: 23%   Direction: NA
Pressure: 30.04"   Gusts: NA
Location:  32.77°N, 117.02°W
Report Text: KSEE 280135Z AUTO 00000KT 10SM CLR 22/00 A3004 RMK AO2
Loading
Personal Weather Stations






























Interactive Weather Map New forecast layout! Learn more

10-Day Weather Forecast

Advertisements
Track Severe Weather on mobile